Time;durP1;ratioP1;P1;durP2;ratioP2;P2;SDS_P1;SDS_P2;PMS_P1;PMS_P2;Temp;Humidity;BMP_temperature;BMP_pressure;BME280_temperature;BME280_humidity;BME280_pressure;Samples;Min_cycle;Max_cycle;Signal;HPM_P1;HPM_P2
2022/01/29 00:01:44;;;;;;;12.23;7.63;;;;;;;;;;5100239;28;20444;-71
2022/01/29 00:04:12;;;;;;;12.27;7.60;;;;;;;;;;5099652;28;20566;-71
2022/01/29 00:06:40;;;;;;;12.93;7.20;;;;;;;;;;5099858;28;20840;-70
2022/01/29 00:09:13;;;;;;;11.23;7.20;;;;;;;;;;5099801;28;20454;-71
2022/01/29 00:11:41;;;;;;;15.13;8.43;;;;;;;;;;5099824;28;20444;-71
2022/01/29 00:14:09;;;;;;;14.53;8.20;;;;;;;;;;5099603;28;20935;-71
2022/01/29 00:16:37;;;;;;;13.87;7.60;;;;;;;;;;5099611;28;20466;-71
2022/01/29 00:19:06;;;;;;;12.03;8.00;;;;;;;;;;5107795;28;20842;-71
2022/01/29 00:21:34;;;;;;;13.73;7.80;;;;;;;;;;5120230;28;20439;-71
2022/01/29 00:24:02;;;;;;;14.00;7.90;;;;;;;;;;5110590;28;20475;-71
2022/01/29 00:26:30;;;;;;;11.33;7.93;;;;;;;;;;5099419;28;21020;-71
2022/01/29 00:29:04;;;;;;;10.93;7.40;;;;;;;;;;5113432;28;20457;-71
2022/01/29 00:31:32;;;;;;;14.97;7.63;;;;;;;;;;5120207;28;20937;-71
2022/01/29 00:34:02;;;;;;;14.10;8.43;;;;;;;;;;5117480;28;21007;-70
2022/01/29 00:36:31;;;;;;;15.80;9.43;;;;;;;;;;5119640;28;20470;-70
2022/01/29 00:38:59;;;;;;;13.87;9.03;;;;;;;;;;5110149;28;20459;-71
2022/01/29 00:41:27;;;;;;;12.90;8.13;;;;;;;;;;5099557;28;20439;-71
2022/01/29 00:43:57;;;;;;;15.17;9.00;;;;;;;;;;5113563;28;20475;-70
2022/01/29 00:46:25;;;;;;;10.33;8.60;;;;;;;;;;5119445;28;20604;-70
2022/01/29 00:48:53;;;;;;;15.90;8.27;;;;;;;;;;5118541;28;20451;-71
2022/01/29 00:51:21;;;;;;;16.50;9.17;;;;;;;;;;5119660;28;20438;-70
2022/01/29 00:53:50;;;;;;;17.13;9.67;;;;;;;;;;5118320;28;20918;-70
2022/01/29 00:56:18;;;;;;;15.40;9.57;;;;;;;;;;5118493;28;20455;-71
2022/01/29 00:58:46;;;;;;;17.63;9.80;;;;;;;;;;5104167;28;20462;-69
2022/01/29 01:01:14;;;;;;;15.77;9.07;;;;;;;;;;5106177;28;20479;-70
2022/01/29 01:03:42;;;;;;;15.47;8.70;;;;;;;;;;5118148;28;20508;-70
2022/01/29 01:06:10;;;;;;;13.27;8.43;;;;;;;;;;5118198;28;20488;-70
2022/01/29 01:08:38;;;;;;;14.70;8.47;;;;;;;;;;5119016;28;20539;-70
2022/01/29 01:11:07;;;;;;;16.47;9.73;;;;;;;;;;5118139;28;20979;-71
2022/01/29 01:13:35;;;;;;;15.07;9.30;;;;;;;;;;5118756;28;20442;-70
2022/01/29 01:16:03;;;;;;;13.47;8.57;;;;;;;;;;5118550;28;20973;-70
2022/01/29 01:18:31;;;;;;;12.73;8.60;;;;;;;;;;5114423;28;20791;-70
2022/01/29 01:20:59;;;;;;;15.53;8.07;;;;;;;;;;5098527;28;20948;-71
2022/01/29 01:23:27;;;;;;;16.40;9.27;;;;;;;;;;5098480;28;20450;-71
2022/01/29 01:25:55;;;;;;;15.57;7.87;;;;;;;;;;5109375;28;20489;-70
2022/01/29 01:28:25;;;;;;;17.30;8.50;;;;;;;;;;5118665;28;20807;-70
2022/01/29 01:30:53;;;;;;;13.03;8.03;;;;;;;;;;5107975;28;20458;-71
2022/01/29 01:33:21;;;;;;;12.17;8.27;;;;;;;;;;5097723;28;20960;-71
2022/01/29 01:35:52;;;;;;;17.47;9.30;;;;;;;;;;5108070;28;20500;-70
2022/01/29 01:38:27;;;;;;;15.77;8.67;;;;;;;;;;5115028;28;20964;-70
2022/01/29 01:40:59;;;;;;;14.03;8.37;;;;;;;;;;5108520;28;20446;-71
2022/01/29 01:43:30;;;;;;;15.40;8.43;;;;;;;;;;5118518;28;20482;-70
2022/01/29 01:45:58;;;;;;;11.67;7.77;;;;;;;;;;5106977;28;20570;-70
2022/01/29 01:48:26;;;;;;;14.10;8.13;;;;;;;;;;5097624;28;20443;-70
2022/01/29 01:50:54;;;;;;;13.17;8.37;;;;;;;;;;5098355;28;20969;-70
2022/01/29 01:53:22;;;;;;;14.40;8.57;;;;;;;;;;5097805;28;20440;-70
2022/01/29 01:55:50;;;;;;;14.80;8.87;;;;;;;;;;5106386;28;20946;-70
2022/01/29 01:58:18;;;;;;;15.17;9.90;;;;;;;;;;5100845;28;20527;-70
2022/01/29 02:00:47;;;;;;;12.83;8.03;;;;;;;;;;5097912;28;20447;-70
2022/01/29 02:03:15;;;;;;;13.83;8.37;;;;;;;;;;5097362;28;20957;-71
2022/01/29 02:05:44;;;;;;;14.07;8.83;;;;;;;;;;5107052;28;20484;-70
2022/01/29 02:08:14;;;;;;;11.13;8.37;;;;;;;;;;5111910;28;20954;-70
2022/01/29 02:10:45;;;;;;;16.07;9.97;;;;;;;;;;5097577;28;20462;-70
2022/01/29 02:13:13;;;;;;;11.87;8.17;;;;;;;;;;5103079;28;20945;-70
2022/01/29 02:15:41;;;;;;;15.30;9.40;;;;;;;;;;5115640;28;20445;-70
2022/01/29 02:18:14;;;;;;;15.03;9.43;;;;;;;;;;5113806;28;20451;-70
2022/01/29 02:20:44;;;;;;;16.40;10.07;;;;;;;;;;5118155;28;20442;-70
2022/01/29 02:23:13;;;;;;;13.00;8.70;;;;;;;;;;5112795;28;20841;-70
2022/01/29 02:25:43;;;;;;;18.10;9.90;;;;;;;;;;5097250;28;20479;-70
2022/01/29 02:28:12;;;;;;;13.93;8.10;;;;;;;;;;5100682;28;20960;-70
2022/01/29 02:30:41;;;;;;;18.80;10.13;;;;;;;;;;5117868;28;20439;-70
2022/01/29 02:33:12;;;;;;;18.23;10.47;;;;;;;;;;5112850;28;20451;-71
2022/01/29 02:35:41;;;;;;;15.90;9.77;;;;;;;;;;5097051;28;20482;-70
2022/01/29 02:38:10;;;;;;;18.50;9.07;;;;;;;;;;5099392;28;20450;-70
2022/01/29 02:40:46;;;;;;;17.07;10.03;;;;;;;;;;5100285;28;20454;-70
2022/01/29 02:43:15;;;;;;;15.13;8.67;;;;;;;;;;5097211;28;20876;-70
2022/01/29 02:45:43;;;;;;;15.67;9.77;;;;;;;;;;5097653;28;20479;-70
2022/01/29 02:48:12;;;;;;;14.63;9.10;;;;;;;;;;5097299;28;20443;-71
2022/01/29 02:50:40;;;;;;;14.90;9.47;;;;;;;;;;5113732;28;20449;-71
2022/01/29 02:53:08;;;;;;;14.53;9.37;;;;;;;;;;5117887;28;20449;-70
2022/01/29 02:55:37;;;;;;;14.23;9.33;;;;;;;;;;5107879;28;20988;-70
2022/01/29 02:58:06;;;;;;;18.27;9.37;;;;;;;;;;5108036;28;20444;-69
2022/01/29 03:00:34;;;;;;;15.43;9.23;;;;;;;;;;5110320;28;20937;-70
2022/01/29 03:03:02;;;;;;;18.27;10.00;;;;;;;;;;5117221;28;21271;-70
2022/01/29 03:05:31;;;;;;;15.50;8.90;;;;;;;;;;5103457;28;20520;-70
2022/01/29 03:07:59;;;;;;;17.23;9.43;;;;;;;;;;5097477;28;20483;-70
2022/01/29 03:10:28;;;;;;;20.27;9.70;;;;;;;;;;5097151;28;20455;-70
2022/01/29 03:12:56;;;;;;;14.27;9.50;;;;;;;;;;5097308;28;20447;-70
2022/01/29 03:15:25;;;;;;;17.07;9.47;;;;;;;;;;5097579;28;20439;-70
2022/01/29 03:17:53;;;;;;;14.40;9.87;;;;;;;;;;5096524;28;20831;-70
2022/01/29 03:20:21;;;;;;;17.93;9.53;;;;;;;;;;5096960;28;20458;-70
2022/01/29 03:22:49;;;;;;;12.97;8.00;;;;;;;;;;5096857;28;20486;-71
2022/01/29 03:25:17;;;;;;;15.13;8.57;;;;;;;;;;5097685;28;20845;-70
2022/01/29 03:27:45;;;;;;;12.10;7.67;;;;;;;;;;5100680;28;20464;-70
2022/01/29 03:30:14;;;;;;;12.87;7.77;;;;;;;;;;5110326;28;20464;-70
2022/01/29 03:32:43;;;;;;;11.47;6.90;;;;;;;;;;5120878;28;20793;-70
2022/01/29 03:35:11;;;;;;;12.50;6.30;;;;;;;;;;5115779;28;20458;-70
2022/01/29 03:37:40;;;;;;;11.70;7.50;;;;;;;;;;5100466;28;20867;-70
2022/01/29 03:40:08;;;;;;;10.70;6.47;;;;;;;;;;5103996;28;20447;-70
2022/01/29 03:42:42;;;;;;;13.30;6.90;;;;;;;;;;5121051;28;21277;-70
2022/01/29 03:45:10;;;;;;;11.80;7.13;;;;;;;;;;5116499;28;20443;-70
2022/01/29 03:47:38;;;;;;;13.93;7.40;;;;;;;;;;5100374;28;20471;-70
2022/01/29 03:50:08;;;;;;;12.20;6.83;;;;;;;;;;5100357;28;20460;-70
2022/01/29 03:52:36;;;;;;;12.40;7.13;;;;;;;;;;5100505;28;20440;-70
2022/01/29 03:55:05;;;;;;;8.47;6.70;;;;;;;;;;5102647;28;20456;-70
2022/01/29 03:57:33;;;;;;;12.93;7.33;;;;;;;;;;5109920;28;20538;-70
2022/01/29 04:00:02;;;;;;;10.80;6.90;;;;;;;;;;5100035;28;20466;-70
2022/01/29 04:02:30;;;;;;;12.93;7.10;;;;;;;;;;5099997;28;20439;-70
2022/01/29 04:04:58;;;;;;;15.80;8.37;;;;;;;;;;5101411;28;20448;-70
2022/01/29 04:07:28;;;;;;;14.20;6.30;;;;;;;;;;5120692;28;20492;-70
2022/01/29 04:09:56;;;;;;;15.27;8.23;;;;;;;;;;5119939;28;20443;-70
2022/01/29 04:12:26;;;;;;;14.00;8.60;;;;;;;;;;5120269;28;20963;-70
2022/01/29 04:14:57;;;;;;;11.97;7.60;;;;;;;;;;5118436;28;20438;-70
2022/01/29 04:17:25;;;;;;;13.13;7.73;;;;;;;;;;5099929;28;20463;-70
2022/01/29 04:19:53;;;;;;;9.47;6.57;;;;;;;;;;5100827;28;20462;-70
2022/01/29 04:22:20;;;;;;;11.70;7.10;;;;;;;;;;5120306;28;20442;-70
2022/01/29 04:24:50;;;;;;;14.97;7.83;;;;;;;;;;5118609;28;20948;-70
2022/01/29 04:27:22;;;;;;;8.83;6.23;;;;;;;;;;5099476;28;20493;-71
2022/01/29 04:29:55;;;;;;;14.50;7.33;;;;;;;;;;5099727;28;20471;-70
2022/01/29 04:32:32;;;;;;;11.07;6.70;;;;;;;;;;5099474;28;20911;-70
2022/01/29 04:35:00;;;;;;;12.43;7.13;;;;;;;;;;5100649;28;20443;-70
2022/01/29 04:37:31;;;;;;;13.20;7.10;;;;;;;;;;5118775;28;20485;-70
2022/01/29 04:40:00;;;;;;;13.07;8.00;;;;;;;;;;5104521;28;20439;-70
2022/01/29 04:42:28;;;;;;;12.63;7.93;;;;;;;;;;5119381;28;20442;-70
2022/01/29 04:44:56;;;;;;;12.53;7.40;;;;;;;;;;5117052;28;20443;-70
2022/01/29 04:47:24;;;;;;;9.63;7.03;;;;;;;;;;5098844;28;20847;-70
2022/01/29 04:49:52;;;;;;;14.70;7.10;;;;;;;;;;5099023;28;20447;-70
2022/01/29 04:52:20;;;;;;;13.83;7.77;;;;;;;;;;5099285;28;20448;-70
2022/01/29 04:54:48;;;;;;;13.73;7.93;;;;;;;;;;5098970;28;20466;-70
2022/01/29 04:57:17;;;;;;;13.40;7.53;;;;;;;;;;5111325;27;20460;-70
2022/01/29 04:59:52;;;;;;;14.63;8.10;;;;;;;;;;5100447;28;20454;-70
2022/01/29 05:02:20;;;;;;;13.17;7.50;;;;;;;;;;5119490;28;20451;-71
2022/01/29 05:04:49;;;;;;;14.50;8.00;;;;;;;;;;5117754;28;20819;-70
2022/01/29 05:07:17;;;;;;;13.33;7.87;;;;;;;;;;5098767;28;20488;-70
2022/01/29 05:09:45;;;;;;;14.00;7.70;;;;;;;;;;5098987;28;20443;-70
2022/01/29 05:12:19;;;;;;;14.73;8.53;;;;;;;;;;5119224;28;20445;-70
2022/01/29 05:15:05;;;;;;;16.43;9.20;;;;;;;;;;5118058;28;20533;-70
2022/01/29 05:28:34;;;;;;;13.73;8.47;;;;;;;;;;5117235;27;20473;-70
2022/01/29 05:31:04;;;;;;;12.27;7.83;;;;;;;;;;5098147;28;20931;-70
2022/01/29 05:33:32;;;;;;;14.67;8.27;;;;;;;;;;5098106;28;20447;-70
2022/01/29 05:36:00;;;;;;;16.37;9.03;;;;;;;;;;5116952;28;20478;-70
2022/01/29 05:38:28;;;;;;;15.67;7.80;;;;;;;;;;5114277;28;20435;-70
2022/01/29 05:40:56;;;;;;;14.20;8.33;;;;;;;;;;5097978;28;20451;-70
2022/01/29 05:43:24;;;;;;;18.77;8.83;;;;;;;;;;5098516;28;20439;-70
2022/01/29 05:45:52;;;;;;;16.43;9.13;;;;;;;;;;5098789;28;20471;-70
2022/01/29 05:48:22;;;;;;;16.43;8.97;;;;;;;;;;5097695;28;20489;-70
2022/01/29 05:50:50;;;;;;;12.30;7.93;;;;;;;;;;5115996;28;20446;-69
2022/01/29 05:53:18;;;;;;;11.47;7.27;;;;;;;;;;5118538;28;20451;-70
2022/01/29 05:55:46;;;;;;;14.23;8.57;;;;;;;;;;5106951;28;20452;-70
2022/01/29 05:58:13;;;;;;;11.37;7.60;;;;;;;;;;5107102;28;20451;-70
2022/01/29 06:00:41;;;;;;;12.83;7.50;;;;;;;;;;5103449;28;20445;-70
2022/01/29 06:03:11;;;;;;;17.50;8.03;;;;;;;;;;5117926;28;20471;-70
2022/01/29 06:05:40;;;;;;;12.83;7.80;;;;;;;;;;5117973;28;20509;-70
2022/01/29 06:08:08;;;;;;;9.83;6.60;;;;;;;;;;5118250;28;20478;-70
2022/01/29 06:10:36;;;;;;;12.57;7.07;;;;;;;;;;5115371;28;20451;-70
2022/01/29 06:13:05;;;;;;;9.33;5.60;;;;;;;;;;5097964;28;20451;-70
2022/01/29 06:15:34;;;;;;;13.10;7.17;;;;;;;;;;5097404;28;20531;-70
2022/01/29 06:18:03;;;;;;;13.80;7.20;;;;;;;;;;5097515;28;20968;-70
2022/01/29 06:20:31;;;;;;;14.03;7.30;;;;;;;;;;5097548;28;20445;-71
2022/01/29 06:23:02;;;;;;;15.43;8.03;;;;;;;;;;5104411;28;20469;-70
2022/01/29 06:25:30;;;;;;;16.77;8.70;;;;;;;;;;5115819;28;20434;-70
2022/01/29 06:27:58;;;;;;;13.07;8.53;;;;;;;;;;5117399;28;20484;-70
2022/01/29 06:30:26;;;;;;;11.90;7.17;;;;;;;;;;5116781;28;20451;-70
2022/01/29 06:32:54;;;;;;;14.03;7.83;;;;;;;;;;5117583;28;20453;-71
2022/01/29 06:35:22;;;;;;;13.33;7.83;;;;;;;;;;5117419;28;20449;-71
2022/01/29 06:37:50;;;;;;;12.07;7.97;;;;;;;;;;5118050;28;20455;-70
2022/01/29 06:40:20;;;;;;;14.53;8.80;;;;;;;;;;5101581;28;20452;-70
2022/01/29 06:42:48;;;;;;;13.67;8.13;;;;;;;;;;5116362;28;20447;-70
2022/01/29 06:45:15;;;;;;;13.73;7.80;;;;;;;;;;5109408;28;20447;-70
2022/01/29 06:47:43;;;;;;;16.63;8.27;;;;;;;;;;5114477;28;20482;-70
2022/01/29 06:50:11;;;;;;;12.53;8.37;;;;;;;;;;5109975;28;20454;-70
2022/01/29 06:52:39;;;;;;;15.40;8.50;;;;;;;;;;5097263;28;20531;-71
2022/01/29 06:55:08;;;;;;;15.17;8.50;;;;;;;;;;5104016;28;21390;-70
2022/01/29 06:57:37;;;;;;;18.07;8.53;;;;;;;;;;5103320;28;20459;-71
2022/01/29 07:00:25;;;;;;;13.87;8.83;;;;;;;;;;5098767;28;20466;-70
2022/01/29 07:02:53;;;;;;;18.20;8.67;;;;;;;;;;5100801;28;20454;-70
2022/01/29 07:05:21;;;;;;;17.47;8.70;;;;;;;;;;5110002;28;20468;-70
2022/01/29 07:07:49;;;;;;;17.47;9.80;;;;;;;;;;5121428;28;20486;-70
2022/01/29 07:10:17;;;;;;;15.73;8.97;;;;;;;;;;5113118;28;20454;-70
2022/01/29 07:12:46;;;;;;;17.67;10.13;;;;;;;;;;5101026;28;20443;-70
2022/01/29 07:15:14;;;;;;;15.83;9.90;;;;;;;;;;5100823;28;20937;-70
2022/01/29 07:17:42;;;;;;;16.70;9.70;;;;;;;;;;5100493;28;20469;-70
2022/01/29 07:20:11;;;;;;;17.23;8.77;;;;;;;;;;5101245;28;20458;-70
2022/01/29 07:22:39;;;;;;;17.27;10.10;;;;;;;;;;5101265;28;20443;-70
2022/01/29 07:25:08;;;;;;;17.23;8.57;;;;;;;;;;5105870;28;20534;-70
2022/01/29 07:27:36;;;;;;;18.30;10.33;;;;;;;;;;5111353;28;20479;-70
2022/01/29 07:30:06;;;;;;;18.33;10.17;;;;;;;;;;5104599;28;20816;-70
2022/01/29 07:32:34;;;;;;;20.57;10.93;;;;;;;;;;5100386;28;20450;-69
2022/01/29 07:35:02;;;;;;;22.43;10.77;;;;;;;;;;5100563;28;20454;-69
2022/01/29 07:37:30;;;;;;;15.93;10.40;;;;;;;;;;5100142;28;20471;-70
2022/01/29 07:39:58;;;;;;;20.27;9.43;;;;;;;;;;5108844;28;20937;-70
2022/01/29 07:42:26;;;;;;;17.60;10.67;;;;;;;;;;5100544;28;20439;-70
2022/01/29 07:44:54;;;;;;;16.00;9.77;;;;;;;;;;5100310;28;20444;-70
2022/01/29 07:47:23;;;;;;;19.17;10.13;;;;;;;;;;5099888;28;21036;-70
2022/01/29 07:49:51;;;;;;;18.87;10.20;;;;;;;;;;5100475;28;20443;-70
2022/01/29 07:52:19;;;;;;;21.77;11.43;;;;;;;;;;5100094;28;20452;-70
2022/01/29 07:54:47;;;;;;;18.73;10.43;;;;;;;;;;5100852;28;20451;-70
2022/01/29 07:57:15;;;;;;;18.37;10.50;;;;;;;;;;5101710;28;20466;-70
2022/01/29 07:59:43;;;;;;;22.13;10.97;;;;;;;;;;5100102;28;20450;-70
2022/01/29 08:02:11;;;;;;;18.70;10.60;;;;;;;;;;5100316;28;20447;-70
2022/01/29 08:04:41;;;;;;;20.40;10.33;;;;;;;;;;5106084;28;20450;-70
2022/01/29 08:07:09;;;;;;;19.87;10.37;;;;;;;;;;5120577;28;20463;-70
2022/01/29 08:09:37;;;;;;;18.10;11.30;;;;;;;;;;5118271;28;20565;-69
2022/01/29 08:12:05;;;;;;;18.27;10.27;;;;;;;;;;5119114;28;20442;-70
2022/01/29 08:14:33;;;;;;;25.17;11.50;;;;;;;;;;5114485;28;20458;-70
2022/01/29 08:17:01;;;;;;;20.63;11.17;;;;;;;;;;5099929;28;20546;-70
2022/01/29 08:19:29;;;;;;;19.90;11.00;;;;;;;;;;5099260;28;20478;-71
2022/01/29 08:21:58;;;;;;;20.30;10.00;;;;;;;;;;5099587;28;20783;-70
2022/01/29 08:24:26;;;;;;;22.87;10.37;;;;;;;;;;5102700;28;20457;-71
2022/01/29 08:26:54;;;;;;;21.80;10.63;;;;;;;;;;5119765;28;20463;-71
2022/01/29 08:29:22;;;;;;;17.67;9.40;;;;;;;;;;5117198;28;20973;-70
2022/01/29 08:31:50;;;;;;;23.30;11.60;;;;;;;;;;5099705;28;20444;-70
2022/01/29 08:34:18;;;;;;;23.07;10.77;;;;;;;;;;5101005;28;20447;-70
2022/01/29 08:36:46;;;;;;;17.90;10.70;;;;;;;;;;5119557;28;20833;-70
2022/01/29 08:39:15;;;;;;;20.83;10.57;;;;;;;;;;5108671;28;20435;-70
2022/01/29 08:41:44;;;;;;;21.67;10.73;;;;;;;;;;5099556;28;20454;-71
2022/01/29 08:44:12;;;;;;;23.70;11.30;;;;;;;;;;5099163;28;20517;-70
2022/01/29 08:46:40;;;;;;;19.67;10.47;;;;;;;;;;5110797;28;20538;-70
2022/01/29 08:49:08;;;;;;;18.43;9.67;;;;;;;;;;5118906;28;20508;-71
2022/01/29 08:51:36;;;;;;;25.67;10.83;;;;;;;;;;5119157;28;20453;-70
2022/01/29 08:54:04;;;;;;;20.03;9.67;;;;;;;;;;5119496;28;20452;-70
2022/01/29 08:56:33;;;;;;;17.53;9.60;;;;;;;;;;5105708;28;20474;-71
2022/01/29 08:59:01;;;;;;;20.03;10.67;;;;;;;;;;5098877;28;20446;-70
2022/01/29 09:01:29;;;;;;;20.60;10.70;;;;;;;;;;5098776;28;20456;-71
2022/01/29 09:03:57;;;;;;;18.00;9.30;;;;;;;;;;5098608;28;20444;-71
2022/01/29 09:06:26;;;;;;;19.73;10.37;;;;;;;;;;5098820;28;20533;-71
2022/01/29 09:08:53;;;;;;;19.83;9.57;;;;;;;;;;5098806;28;20487;-70
2022/01/29 09:11:21;;;;;;;16.30;9.23;;;;;;;;;;5103034;28;20449;-70
2022/01/29 09:13:51;;;;;;;16.27;10.37;;;;;;;;;;5119325;28;20454;-70
2022/01/29 09:16:19;;;;;;;19.50;9.90;;;;;;;;;;5111731;28;20467;-70
2022/01/29 09:18:47;;;;;;;19.07;10.43;;;;;;;;;;5105308;28;20447;-70
2022/01/29 09:21:15;;;;;;;18.07;8.97;;;;;;;;;;5104946;28;20451;-70
2022/01/29 09:23:43;;;;;;;16.10;10.03;;;;;;;;;;5118310;28;20449;-70
2022/01/29 09:26:11;;;;;;;19.77;9.37;;;;;;;;;;5112905;28;20838;-70
2022/01/29 09:28:39;;;;;;;18.77;10.13;;;;;;;;;;5098281;28;20860;-70
2022/01/29 09:31:08;;;;;;;20.80;10.40;;;;;;;;;;5099841;28;20895;-70
2022/01/29 09:33:36;;;;;;;17.57;10.60;;;;;;;;;;5098415;28;20446;-70
2022/01/29 09:36:04;;;;;;;22.17;10.10;;;;;;;;;;5097944;28;20494;-70
2022/01/29 09:38:32;;;;;;;21.20;9.93;;;;;;;;;;5103459;28;20431;-70
2022/01/29 09:41:00;;;;;;;21.53;10.83;;;;;;;;;;5099211;28;20451;-70
2022/01/29 09:43:30;;;;;;;24.53;10.20;;;;;;;;;;5098044;28;20781;-70
2022/01/29 09:45:58;;;;;;;24.70;11.27;;;;;;;;;;5097823;28;20970;-70
2022/01/29 09:48:29;;;;;;;19.37;9.27;;;;;;;;;;5097881;28;20471;-70
2022/01/29 09:50:57;;;;;;;16.63;9.03;;;;;;;;;;5101153;28;20921;-70
2022/01/29 09:53:25;;;;;;;15.73;8.77;;;;;;;;;;5118278;28;20442;-70
2022/01/29 09:55:53;;;;;;;20.77;10.57;;;;;;;;;;5113311;28;20485;-70
2022/01/29 09:58:21;;;;;;;18.63;10.73;;;;;;;;;;5097691;28;20435;-71
2022/01/29 10:00:49;;;;;;;24.80;10.33;;;;;;;;;;5097429;28;20455;-70
2022/01/29 10:03:19;;;;;;;18.60;9.57;;;;;;;;;;5097431;28;20447;-71
2022/01/29 10:05:50;;;;;;;16.40;9.53;;;;;;;;;;5097323;28;20558;-70
2022/01/29 10:08:19;;;;;;;23.87;11.13;;;;;;;;;;5097763;28;20467;-70
2022/01/29 10:10:47;;;;;;;23.90;12.93;;;;;;;;;;5097464;28;20484;-70
2022/01/29 10:13:25;;;;;;;19.97;10.63;;;;;;;;;;5097604;28;20443;-70
2022/01/29 10:16:03;;;;;;;17.63;10.27;;;;;;;;;;5097396;28;20479;-70
2022/01/29 10:18:32;;;;;;;20.43;10.90;;;;;;;;;;5097266;28;20538;-70
2022/01/29 10:21:08;;;;;;;16.43;9.60;;;;;;;;;;5101486;28;20488;-69
2022/01/29 10:23:36;;;;;;;18.87;10.80;;;;;;;;;;5117752;28;20438;-70
2022/01/29 10:26:05;;;;;;;19.50;10.37;;;;;;;;;;5112638;28;20475;-70
2022/01/29 10:28:33;;;;;;;21.83;10.77;;;;;;;;;;5097298;28;20830;-70
2022/01/29 10:31:02;;;;;;;21.77;10.50;;;;;;;;;;5097640;28;20986;-70
2022/01/29 10:33:31;;;;;;;17.57;9.67;;;;;;;;;;5097062;28;20443;-70
2022/01/29 10:36:00;;;;;;;18.73;10.03;;;;;;;;;;5099144;28;20497;-70
2022/01/29 10:38:30;;;;;;;17.43;8.40;;;;;;;;;;5106488;28;20439;-70
2022/01/29 10:41:17;;;;;;;21.17;9.33;;;;;;;;;;5107273;28;20457;-71
2022/01/29 10:43:59;;;;;;;15.17;8.37;;;;;;;;;;5122148;27;20442;-70
2022/01/29 10:46:28;;;;;;;14.93;7.73;;;;;;;;;;5113817;28;20471;-70
2022/01/29 10:48:57;;;;;;;15.00;8.17;;;;;;;;;;5100805;28;20475;-70
2022/01/29 10:51:24;;;;;;;15.30;7.63;;;;;;;;;;5101584;28;20970;-70
2022/01/29 10:53:54;;;;;;;13.87;7.97;;;;;;;;;;5101354;28;20454;-70
2022/01/29 10:56:22;;;;;;;13.37;7.47;;;;;;;;;;5105959;28;20459;-71
2022/01/29 10:58:53;;;;;;;12.43;7.10;;;;;;;;;;5101189;28;20447;-70
2022/01/29 11:01:22;;;;;;;15.73;7.70;;;;;;;;;;5108214;28;20442;-71
2022/01/29 11:03:53;;;;;;;14.03;7.47;;;;;;;;;;5121249;27;20801;-70
2022/01/29 11:06:28;;;;;;;15.67;8.27;;;;;;;;;;5117321;28;20473;-70
2022/01/29 11:08:58;;;;;;;15.20;9.07;;;;;;;;;;5121612;28;20446;-71
2022/01/29 11:11:26;;;;;;;11.20;6.87;;;;;;;;;;5117625;28;20926;-70
2022/01/29 11:14:12;;;;;;;15.00;7.37;;;;;;;;;;5101130;28;21002;-70
2022/01/29 11:16:40;;;;;;;15.43;8.23;;;;;;;;;;5100633;28;20478;-70
2022/01/29 11:19:08;;;;;;;9.37;7.50;;;;;;;;;;5100584;28;20455;-70
2022/01/29 11:21:37;;;;;;;13.43;7.90;;;;;;;;;;5100920;28;20956;-70
2022/01/29 11:24:07;;;;;;;12.40;6.80;;;;;;;;;;5101154;28;20448;-70
2022/01/29 11:26:36;;;;;;;11.83;6.93;;;;;;;;;;5100658;28;20459;-70
2022/01/29 11:29:22;;;;;;;12.27;6.77;;;;;;;;;;5100562;28;20455;-70
2022/01/29 11:31:50;;;;;;;11.50;7.53;;;;;;;;;;5100773;28;20439;-70
2022/01/29 11:34:21;;;;;;;11.93;7.03;;;;;;;;;;5102998;28;20451;-71
2022/01/29 11:37:05;;;;;;;8.47;6.20;;;;;;;;;;5110274;28;20508;-71
2022/01/29 11:39:36;;;;;;;11.40;7.10;;;;;;;;;;5109767;28;20448;-70
2022/01/29 11:42:21;;;;;;;12.23;8.03;;;;;;;;;;5100923;28;20984;-70
2022/01/29 11:44:49;;;;;;;13.50;7.93;;;;;;;;;;5090596;28;20447;-70
2022/01/29 11:47:48;;;;;;;11.97;6.70;;;;;;;;;;5100382;28;20459;-70
2022/01/29 11:50:36;;;;;;;14.60;7.37;;;;;;;;;;5037695;28;20668;-70
2022/01/29 11:53:05;;;;;;;14.20;6.57;;;;;;;;;;5090610;28;20447;-70
2022/01/29 11:55:35;;;;;;;9.17;6.53;;;;;;;;;;5106314;28;20450;-70
2022/01/29 11:58:16;;;;;;;14.40;6.67;;;;;;;;;;5100168;28;20454;-70
2022/01/29 12:00:45;;;;;;;12.57;6.17;;;;;;;;;;5100278;28;20435;-70
2022/01/29 12:03:28;;;;;;;11.97;6.57;;;;;;;;;;5099659;28;20939;-71
2022/01/29 12:06:17;;;;;;;10.23;5.67;;;;;;;;;;5099630;28;20486;-70
2022/01/29 12:09:05;;;;;;;12.43;6.03;;;;;;;;;;5099476;28;20448;-70
2022/01/29 12:11:35;;;;;;;13.50;6.57;;;;;;;;;;5100292;28;20483;-70
2022/01/29 12:14:18;;;;;;;15.27;6.97;;;;;;;;;;5099542;28;20454;-70
2022/01/29 12:16:47;;;;;;;12.43;7.00;;;;;;;;;;5098857;28;20839;-70
2022/01/29 12:19:30;;;;;;;10.13;6.10;;;;;;;;;;5099147;28;20462;-70
2022/01/29 12:21:58;;;;;;;14.00;6.50;;;;;;;;;;5099645;28;20462;-70
2022/01/29 12:24:26;;;;;;;13.97;7.57;;;;;;;;;;5099448;28;20450;-70
2022/01/29 12:26:56;;;;;;;13.43;7.17;;;;;;;;;;5099683;28;20460;-70
2022/01/29 12:29:24;;;;;;;11.27;6.97;;;;;;;;;;5099150;28;20448;-70
2022/01/29 12:31:53;;;;;;;11.60;7.53;;;;;;;;;;5099689;28;20487;-70
2022/01/29 12:34:21;;;;;;;13.53;7.10;;;;;;;;;;5099410;28;20444;-71
2022/01/29 12:36:49;;;;;;;13.67;7.83;;;;;;;;;;5099502;28;20493;-69
2022/01/29 12:39:22;;;;;;;12.47;7.00;;;;;;;;;;5110890;28;20451;-70
2022/01/29 12:42:05;;;;;;;12.90;6.90;;;;;;;;;;5099180;28;20470;-70
2022/01/29 12:44:33;;;;;;;8.57;6.37;;;;;;;;;;5114061;28;20475;-70
2022/01/29 12:47:00;;;;;;;12.63;7.07;;;;;;;;;;5119735;28;20550;-70
2022/01/29 12:49:39;;;;;;;12.73;7.27;;;;;;;;;;5104269;28;20444;-70
2022/01/29 12:52:08;;;;;;;14.67;9.20;;;;;;;;;;5099104;28;20479;-69
2022/01/29 12:54:36;;;;;;;12.07;7.47;;;;;;;;;;5099030;28;20452;-70
2022/01/29 12:57:06;;;;;;;13.70;7.43;;;;;;;;;;5108934;28;20471;-70
2022/01/29 12:59:35;;;;;;;11.77;7.03;;;;;;;;;;5113303;28;20447;-70
2022/01/29 13:02:04;;;;;;;11.83;6.77;;;;;;;;;;5119722;28;20439;-70
2022/01/29 13:04:32;;;;;;;13.60;7.23;;;;;;;;;;5104096;28;20448;-70
2022/01/29 13:07:01;;;;;;;12.47;7.30;;;;;;;;;;5099313;28;20459;-70
2022/01/29 13:09:29;;;;;;;10.47;6.33;;;;;;;;;;5118952;27;20956;-70
2022/01/29 13:11:58;;;;;;;11.70;6.33;;;;;;;;;;5117490;28;20489;-70
2022/01/29 13:14:28;;;;;;;11.10;6.00;;;;;;;;;;5099014;28;20446;-69
2022/01/29 13:16:58;;;;;;;11.00;7.00;;;;;;;;;;5098477;28;20471;-70
2022/01/29 13:19:28;;;;;;;12.17;6.47;;;;;;;;;;5110369;28;20447;-70
2022/01/29 13:21:57;;;;;;;12.47;6.97;;;;;;;;;;5118608;28;20446;-70
2022/01/29 13:24:36;;;;;;;13.20;6.10;;;;;;;;;;5119407;28;20447;-70
2022/01/29 13:27:09;;;;;;;9.60;6.03;;;;;;;;;;5118687;28;20478;-70
2022/01/29 13:29:40;;;;;;;9.73;7.27;;;;;;;;;;5119088;28;20439;-70
2022/01/29 13:32:10;;;;;;;9.90;6.73;;;;;;;;;;5115072;28;20482;-70
2022/01/29 13:34:39;;;;;;;12.73;6.40;;;;;;;;;;5098134;28;20806;-70
2022/01/29 13:37:27;;;;;;;11.93;6.53;;;;;;;;;;5097716;28;20479;-70
2022/01/29 13:39:55;;;;;;;11.30;5.63;;;;;;;;;;5101404;28;20474;-70
2022/01/29 13:42:26;;;;;;;10.20;5.73;;;;;;;;;;5103143;28;20457;-70
2022/01/29 13:45:09;;;;;;;11.83;5.97;;;;;;;;;;5118762;28;20453;-70
2022/01/29 13:47:38;;;;;;;12.20;7.00;;;;;;;;;;5103649;28;20476;-70
2022/01/29 13:50:23;;;;;;;16.80;7.40;;;;;;;;;;5098353;28;20450;-71
2022/01/29 13:53:01;;;;;;;14.97;8.13;;;;;;;;;;5097804;28;20537;-70
2022/01/29 13:55:29;;;;;;;15.27;7.77;;;;;;;;;;5103717;28;20442;-70
2022/01/29 13:58:04;;;;;;;17.27;7.27;;;;;;;;;;5100596;28;20464;-70
2022/01/29 14:00:50;;;;;;;12.17;6.97;;;;;;;;;;5098296;28;20449;-70
2022/01/29 14:03:20;;;;;;;12.77;7.40;;;;;;;;;;5097747;28;20448;-70
2022/01/29 14:05:49;;;;;;;9.87;6.30;;;;;;;;;;5097806;28;20532;-70
2022/01/29 14:08:19;;;;;;;14.80;7.20;;;;;;;;;;5097889;28;20455;-71
2022/01/29 14:10:56;;;;;;;10.77;5.97;;;;;;;;;;5099740;28;20443;-71
2022/01/29 14:13:28;;;;;;;10.03;5.57;;;;;;;;;;5097680;28;20817;-70
2022/01/29 14:15:56;;;;;;;9.87;5.70;;;;;;;;;;5097693;28;20467;-70
2022/01/29 14:18:34;;;;;;;8.37;5.30;;;;;;;;;;5097340;28;20505;-70
2022/01/29 14:21:02;;;;;;;8.47;5.13;;;;;;;;;;5097656;28;20447;-70
2022/01/29 14:23:30;;;;;;;6.67;4.27;;;;;;;;;;5097814;28;20447;-70
2022/01/29 14:26:16;;;;;;;6.17;4.13;;;;;;;;;;5097530;28;20485;-70
2022/01/29 14:28:44;;;;;;;7.60;4.40;;;;;;;;;;5097659;28;20586;-71
2022/01/29 14:31:12;;;;;;;7.10;4.53;;;;;;;;;;5097500;28;20479;-70
2022/01/29 14:33:42;;;;;;;9.27;5.80;;;;;;;;;;5097350;28;20927;-69
2022/01/29 14:36:10;;;;;;;9.27;5.83;;;;;;;;;;5105147;28;20489;-70
2022/01/29 14:38:38;;;;;;;9.80;5.50;;;;;;;;;;5111583;28;20531;-70
2022/01/29 14:41:06;;;;;;;7.97;5.57;;;;;;;;;;5097495;28;20447;-70
2022/01/29 14:43:34;;;;;;;12.03;6.17;;;;;;;;;;5097569;28;20443;-70
2022/01/29 14:46:04;;;;;;;7.67;5.47;;;;;;;;;;5097737;28;20481;-69
2022/01/29 14:48:32;;;;;;;8.47;5.40;;;;;;;;;;5096912;28;20443;-70
2022/01/29 14:51:03;;;;;;;7.70;4.97;;;;;;;;;;5097168;28;20448;-70
2022/01/29 14:53:31;;;;;;;6.63;5.23;;;;;;;;;;5097131;28;20440;-70
2022/01/29 14:55:59;;;;;;;9.13;5.73;;;;;;;;;;5103530;28;20478;-70